sensor_id;sensor_type;location;lat;lon;timestamp;pressure;altitude;pressure_sealevel;temperature;humidity
42847;BME280;28495;49.916;14.536;2022-10-14T00:04:04;97075.31;;;11.47;67.87
42847;BME280;28495;49.916;14.536;2022-10-14T00:09:24;97074.34;;;11.18;67.66
42847;BME280;28495;49.916;14.536;2022-10-14T00:14:46;97074.75;;;11.13;68.31
42847;BME280;28495;49.916;14.536;2022-10-14T00:20:08;97073.13;;;11.12;68.55
42847;BME280;28495;49.916;14.536;2022-10-14T00:25:29;97066.00;;;11.24;68.69
42847;BME280;28495;49.916;14.536;2022-10-14T00:30:59;97065.41;;;11.31;69.01
42847;BME280;28495;49.916;14.536;2022-10-14T00:36:22;97056.91;;;11.38;69.04
42847;BME280;28495;49.916;14.536;2022-10-14T00:41:44;97061.03;;;11.41;69.06
42847;BME280;28495;49.916;14.536;2022-10-14T00:47:04;97060.75;;;11.44;69.18
42847;BME280;28495;49.916;14.536;2022-10-14T00:52:25;97056.63;;;11.51;69.14
42847;BME280;28495;49.916;14.536;2022-10-14T00:57:47;97055.78;;;11.61;69.32
42847;BME280;28495;49.916;14.536;2022-10-14T01:03:09;97044.78;;;11.77;69.16
42847;BME280;28495;49.916;14.536;2022-10-14T01:08:44;97044.34;;;11.81;69.32
42847;BME280;28495;49.916;14.536;2022-10-14T01:14:24;97038.59;;;11.68;68.90
42847;BME280;28495;49.916;14.536;2022-10-14T01:31:33;97041.19;;;11.78;68.68
42847;BME280;28495;49.916;14.536;2022-10-14T01:37:04;97037.50;;;11.51;68.72
42847;BME280;28495;49.916;14.536;2022-10-14T01:42:34;97025.13;;;11.53;69.22
42847;BME280;28495;49.916;14.536;2022-10-14T01:47:58;97029.41;;;11.54;69.07
42847;BME280;28495;49.916;14.536;2022-10-14T01:53:51;97026.94;;;11.62;69.07
42847;BME280;28495;49.916;14.536;2022-10-14T01:59:10;97018.41;;;11.50;68.86
42847;BME280;28495;49.916;14.536;2022-10-14T02:04:33;97015.13;;;11.38;68.78
42847;BME280;28495;49.916;14.536;2022-10-14T02:21:22;97015.13;;;11.38;68.96
42847;BME280;28495;49.916;14.536;2022-10-14T02:26:44;97005.09;;;11.34;69.19
42847;BME280;28495;49.916;14.536;2022-10-14T02:32:08;97008.13;;;11.39;69.18
42847;BME280;28495;49.916;14.536;2022-10-14T02:37:31;97011.97;;;11.44;69.44
42847;BME280;28495;49.916;14.536;2022-10-14T02:42:52;97010.31;;;11.43;69.16
42847;BME280;28495;49.916;14.536;2022-10-14T02:48:13;97004.13;;;11.35;68.97
42847;BME280;28495;49.916;14.536;2022-10-14T02:53:34;97001.78;;;11.32;68.88
42847;BME280;28495;49.916;14.536;2022-10-14T02:58:55;97004.81;;;11.37;69.15
42847;BME280;28495;49.916;14.536;2022-10-14T03:04:15;97001.53;;;11.35;69.11
42847;BME280;28495;49.916;14.536;2022-10-14T03:09:36;97007.16;;;11.30;68.91
42847;BME280;28495;49.916;14.536;2022-10-14T03:14:59;97007.88;;;11.22;68.71
42847;BME280;28495;49.916;14.536;2022-10-14T03:20:19;97004.84;;;11.17;69.52
42847;BME280;28495;49.916;14.536;2022-10-14T03:25:45;97004.41;;;11.22;69.47
42847;BME280;28495;49.916;14.536;2022-10-14T03:31:19;97008.94;;;11.20;69.08
42847;BME280;28495;49.916;14.536;2022-10-14T03:37:03;97008.81;;;11.11;68.97
42847;BME280;28495;49.916;14.536;2022-10-14T03:42:26;97010.19;;;11.16;69.06
42847;BME280;28495;49.916;14.536;2022-10-14T03:47:48;97003.34;;;11.15;69.35
42847;BME280;28495;49.916;14.536;2022-10-14T03:53:08;97006.47;;;11.08;69.36
42847;BME280;28495;49.916;14.536;2022-10-14T03:58:29;97004.13;;;11.05;69.46
42847;BME280;28495;49.916;14.536;2022-10-14T04:03:56;96991.94;;;11.06;69.35
42847;BME280;28495;49.916;14.536;2022-10-14T04:09:20;96997.16;;;11.06;69.67
42847;BME280;28495;49.916;14.536;2022-10-14T04:14:41;96999.50;;;11.09;69.33
42847;BME280;28495;49.916;14.536;2022-10-14T04:20:04;96985.88;;;11.05;69.47
42847;BME280;28495;49.916;14.536;2022-10-14T04:25:26;96986.44;;;10.99;69.63
42847;BME280;28495;49.916;14.536;2022-10-14T04:30:54;96982.72;;;11.11;69.84
42847;BME280;28495;49.916;14.536;2022-10-14T04:36:20;96983.41;;;11.23;69.89
42847;BME280;28495;49.916;14.536;2022-10-14T04:41:42;96975.16;;;11.28;69.68
42847;BME280;28495;49.916;14.536;2022-10-14T04:47:07;96968.56;;;11.24;69.49
42847;BME280;28495;49.916;14.536;2022-10-14T04:52:30;96960.28;;;11.28;69.99
42847;BME280;28495;49.916;14.536;2022-10-14T04:58:00;96967.19;;;11.20;69.87
42847;BME280;28495;49.916;14.536;2022-10-14T05:03:28;96968.84;;;11.11;69.67
42847;BME280;28495;49.916;14.536;2022-10-14T05:08:51;96968.56;;;11.14;69.98
42847;BME280;28495;49.916;14.536;2022-10-14T05:14:12;96956.63;;;11.21;69.96
42847;BME280;28495;49.916;14.536;2022-10-14T05:19:35;96965.94;;;11.14;69.67
42847;BME280;28495;49.916;14.536;2022-10-14T05:24:56;96959.91;;;11.23;71.92
42847;BME280;28495;49.916;14.536;2022-10-14T05:30:17;96954.53;;;11.82;70.90
42847;BME280;28495;49.916;14.536;2022-10-14T05:35:42;96957.78;;;11.56;69.52
42847;BME280;28495;49.916;14.536;2022-10-14T05:41:20;96958.34;;;11.40;69.46
42847;BME280;28495;49.916;14.536;2022-10-14T05:46:41;96959.84;;;11.43;69.89
42847;BME280;28495;49.916;14.536;2022-10-14T05:52:03;96966.78;;;11.34;69.47
42847;BME280;28495;49.916;14.536;2022-10-14T05:57:26;96967.31;;;11.28;69.91
42847;BME280;28495;49.916;14.536;2022-10-14T06:02:47;96960.19;;;11.20;69.82
42847;BME280;28495;49.916;14.536;2022-10-14T06:08:10;96967.31;;;11.18;69.82
42847;BME280;28495;49.916;14.536;2022-10-14T06:13:31;96962.53;;;11.13;69.94
42847;BME280;28495;49.916;14.536;2022-10-14T06:18:52;96964.03;;;11.16;70.34
42847;BME280;28495;49.916;14.536;2022-10-14T06:24:14;96963.75;;;11.19;70.23
42847;BME280;28495;49.916;14.536;2022-10-14T06:29:36;96966.91;;;11.33;70.48
42847;BME280;28495;49.916;14.536;2022-10-14T06:34:59;96967.94;;;11.50;70.95
42847;BME280;28495;49.916;14.536;2022-10-14T06:40:20;96967.44;;;11.36;70.48
42847;BME280;28495;49.916;14.536;2022-10-14T06:45:41;96968.81;;;11.31;70.48
42847;BME280;28495;49.916;14.536;2022-10-14T06:51:02;96968.13;;;11.38;70.91
42847;BME280;28495;49.916;14.536;2022-10-14T06:56:23;96968.81;;;11.40;70.84
42847;BME280;28495;49.916;14.536;2022-10-14T07:01:43;96960.41;;;11.47;71.38
42847;BME280;28495;49.916;14.536;2022-10-14T07:07:05;96977.69;;;11.57;71.04
42847;BME280;28495;49.916;14.536;2022-10-14T07:12:26;96976.97;;;11.65;71.21
42847;BME280;28495;49.916;14.536;2022-10-14T07:17:47;96984.69;;;11.77;71.10
42847;BME280;28495;49.916;14.536;2022-10-14T07:23:08;96992.34;;;11.78;71.18
42847;BME280;28495;49.916;14.536;2022-10-14T07:28:29;96983.16;;;11.74;71.09
42847;BME280;28495;49.916;14.536;2022-10-14T07:33:50;96986.19;;;11.69;71.05
42847;BME280;28495;49.916;14.536;2022-10-14T07:39:11;96984.25;;;11.71;71.68
42847;BME280;28495;49.916;14.536;2022-10-14T07:44:32;96977.78;;;11.76;71.23
42847;BME280;28495;49.916;14.536;2022-10-14T07:49:53;96985.09;;;11.72;71.18
42847;BME280;28495;49.916;14.536;2022-10-14T07:55:13;96981.63;;;11.81;71.66
42847;BME280;28495;49.916;14.536;2022-10-14T08:00:36;96974.13;;;11.96;71.58
42847;BME280;28495;49.916;14.536;2022-10-14T08:06:01;96972.97;;;12.18;71.75
42847;BME280;28495;49.916;14.536;2022-10-14T08:11:25;96984.50;;;12.26;71.50
42847;BME280;28495;49.916;14.536;2022-10-14T08:16:46;96986.53;;;12.32;71.64
42847;BME280;28495;49.916;14.536;2022-10-14T08:22:08;96988.31;;;12.31;71.44
42847;BME280;28495;49.916;14.536;2022-10-14T08:27:29;96986.38;;;12.33;71.75
42847;BME280;28495;49.916;14.536;2022-10-14T08:32:50;96990.59;;;12.44;71.48
42847;BME280;28495;49.916;14.536;2022-10-14T08:38:10;96983.00;;;12.51;71.24
42847;BME280;28495;49.916;14.536;2022-10-14T08:44:10;96987.84;;;12.64;71.05
42847;BME280;28495;49.916;14.536;2022-10-14T08:49:35;96985.91;;;12.66;71.23
42847;BME280;28495;49.916;14.536;2022-10-14T08:55:03;96986.00;;;12.74;71.40
42847;BME280;28495;49.916;14.536;2022-10-14T09:00:27;96991.38;;;12.73;71.28
42847;BME280;28495;49.916;14.536;2022-10-14T09:05:56;96995.63;;;12.74;71.44
42847;BME280;28495;49.916;14.536;2022-10-14T09:11:20;96996.59;;;12.73;71.28
42847;BME280;28495;49.916;14.536;2022-10-14T09:16:42;96993.84;;;12.74;71.13
42847;BME280;28495;49.916;14.536;2022-10-14T09:22:14;96996.69;;;12.81;71.57
42847;BME280;28495;49.916;14.536;2022-10-14T09:27:35;96994.81;;;12.91;71.27
42847;BME280;28495;49.916;14.536;2022-10-14T09:32:57;96998.28;;;12.92;71.31
42847;BME280;28495;49.916;14.536;2022-10-14T09:38:19;96996.31;;;12.94;71.49
42847;BME280;28495;49.916;14.536;2022-10-14T09:44:20;96991.00;;;13.04;71.52
42847;BME280;28495;49.916;14.536;2022-10-14T09:49:44;96986.44;;;13.06;71.44
42847;BME280;28495;49.916;14.536;2022-10-14T09:55:15;96990.03;;;13.05;71.63
42847;BME280;28495;49.916;14.536;2022-10-14T10:00:38;96987.59;;;13.03;71.34
42847;BME280;28495;49.916;14.536;2022-10-14T10:06:07;96981.44;;;13.13;71.51
42847;BME280;28495;49.916;14.536;2022-10-14T10:11:36;96979.09;;;13.09;71.55
42847;BME280;28495;49.916;14.536;2022-10-14T10:22:28;96983.53;;;13.09;71.64
42847;BME280;28495;49.916;14.536;2022-10-14T10:27:56;96971.47;;;13.16;71.73
42847;BME280;28495;49.916;14.536;2022-10-14T10:33:23;96969.13;;;13.31;71.53
42847;BME280;28495;49.916;14.536;2022-10-14T10:39:02;96954.03;;;13.43;71.54
42847;BME280;28495;49.916;14.536;2022-10-14T10:44:51;96950.59;;;13.43;71.57
42847;BME280;28495;49.916;14.536;2022-10-14T10:50:30;96950.84;;;13.57;71.67
42847;BME280;28495;49.916;14.536;2022-10-14T11:13:29;96910.44;;;14.03;71.43
42847;BME280;28495;49.916;14.536;2022-10-14T11:19:09;96910.28;;;14.05;71.37
42847;BME280;28495;49.916;14.536;2022-10-14T11:30:22;96897.22;;;14.29;71.05
42847;BME280;28495;49.916;14.536;2022-10-14T11:47:32;96891.38;;;14.60;70.84
42847;BME280;28495;49.916;14.536;2022-10-14T11:53:03;96897.63;;;14.59;71.09
42847;BME280;28495;49.916;14.536;2022-10-14T11:58:31;96891.94;;;14.81;71.67
42847;BME280;28495;49.916;14.536;2022-10-14T12:04:05;96889.13;;;14.99;71.18
42847;BME280;28495;49.916;14.536;2022-10-14T12:09:32;96882.72;;;14.93;70.58
42847;BME280;28495;49.916;14.536;2022-10-14T12:15:15;96884.34;;;14.86;70.27
42847;BME280;28495;49.916;14.536;2022-10-14T12:31:37;96870.22;;;14.62;70.19
42847;BME280;28495;49.916;14.536;2022-10-14T12:36:58;96859.56;;;14.63;70.34
42847;BME280;28495;49.916;14.536;2022-10-14T12:42:20;96855.81;;;14.74;70.11
42847;BME280;28495;49.916;14.536;2022-10-14T12:47:41;96846.13;;;14.83;70.33
42847;BME280;28495;49.916;14.536;2022-10-14T12:53:07;96847.75;;;14.92;70.07
42847;BME280;28495;49.916;14.536;2022-10-14T12:58:56;96847.09;;;14.99;69.95
42847;BME280;28495;49.916;14.536;2022-10-14T13:04:20;96844.16;;;15.02;69.94
42847;BME280;28495;49.916;14.536;2022-10-14T13:09:43;96847.25;;;15.05;69.93
42847;BME280;28495;49.916;14.536;2022-10-14T13:15:46;96839.84;;;15.17;69.59
42847;BME280;28495;49.916;14.536;2022-10-14T13:21:26;96845.44;;;15.14;69.36
42847;BME280;28495;49.916;14.536;2022-10-14T13:32:27;96827.38;;;15.19;69.31
42847;BME280;28495;49.916;14.536;2022-10-14T13:38:00;96831.63;;;15.20;69.28
42847;BME280;28495;49.916;14.536;2022-10-14T13:43:34;96818.16;;;15.23;69.13
42847;BME280;28495;49.916;14.536;2022-10-14T13:49:02;96819.47;;;15.28;69.25
42847;BME280;28495;49.916;14.536;2022-10-14T13:54:27;96808.78;;;15.29;69.01
42847;BME280;28495;49.916;14.536;2022-10-14T13:59:49;96798.78;;;15.33;68.63
42847;BME280;28495;49.916;14.536;2022-10-14T14:05:34;96792.22;;;15.29;68.71
42847;BME280;28495;49.916;14.536;2022-10-14T14:10:58;96787.94;;;15.28;68.94
42847;BME280;28495;49.916;14.536;2022-10-14T14:16:40;96786.28;;;15.27;68.88
42847;BME280;28495;49.916;14.536;2022-10-14T14:22:19;96789.06;;;15.33;69.22
42847;BME280;28495;49.916;14.536;2022-10-14T14:27:47;96793.34;;;15.34;68.69
42847;BME280;28495;49.916;14.536;2022-10-14T14:33:17;96789.59;;;15.29;68.70
42847;BME280;28495;49.916;14.536;2022-10-14T14:38:50;96787.13;;;15.27;68.34
42847;BME280;28495;49.916;14.536;2022-10-14T14:44:12;96777.63;;;15.18;68.42
42847;BME280;28495;49.916;14.536;2022-10-14T14:49:46;96771.09;;;15.05;67.83
42847;BME280;28495;49.916;14.536;2022-10-14T15:00:54;96766.03;;;15.04;68.34
42847;BME280;28495;49.916;14.536;2022-10-14T15:06:16;96759.78;;;14.97;68.42
42847;BME280;28495;49.916;14.536;2022-10-14T15:11:52;96753.06;;;14.94;68.33
42847;BME280;28495;49.916;14.536;2022-10-14T15:17:30;96764.72;;;14.91;68.46
42847;BME280;28495;49.916;14.536;2022-10-14T15:22:52;96755.19;;;14.90;68.40
42847;BME280;28495;49.916;14.536;2022-10-14T15:28:30;96744.56;;;14.84;68.50
42847;BME280;28495;49.916;14.536;2022-10-14T15:33:52;96737.19;;;14.79;68.26
42847;BME280;28495;49.916;14.536;2022-10-14T15:39:12;96729.78;;;14.83;68.47
42847;BME280;28495;49.916;14.536;2022-10-14T15:44:33;96737.03;;;14.81;68.43
42847;BME280;28495;49.916;14.536;2022-10-14T15:49:55;96734.88;;;14.84;68.63
42847;BME280;28495;49.916;14.536;2022-10-14T15:55:21;96736.81;;;14.90;69.00
42847;BME280;28495;49.916;14.536;2022-10-14T16:00:42;96735.69;;;14.93;68.64
42847;BME280;28495;49.916;14.536;2022-10-14T16:06:06;96737.00;;;14.89;69.08
42847;BME280;28495;49.916;14.536;2022-10-14T16:11:30;96733.91;;;14.85;68.96
42847;BME280;28495;49.916;14.536;2022-10-14T16:16:51;96734.59;;;14.71;68.55
42847;BME280;28495;49.916;14.536;2022-10-14T16:22:12;96742.59;;;14.61;68.29
42847;BME280;28495;49.916;14.536;2022-10-14T16:27:34;96739.16;;;14.52;68.48
42847;BME280;28495;49.916;14.536;2022-10-14T16:32:55;96737.19;;;14.46;68.44
42847;BME280;28495;49.916;14.536;2022-10-14T16:38:16;96745.25;;;14.28;68.43
42847;BME280;28495;49.916;14.536;2022-10-14T16:43:37;96753.28;;;14.18;68.63
42847;BME280;28495;49.916;14.536;2022-10-14T16:48:58;96755.59;;;14.13;68.45
42847;BME280;28495;49.916;14.536;2022-10-14T16:54:19;96754.25;;;14.09;68.79
42847;BME280;28495;49.916;14.536;2022-10-14T16:59:41;96749.84;;;14.01;68.71
42847;BME280;28495;49.916;14.536;2022-10-14T17:05:01;96754.06;;;13.94;68.87
42847;BME280;28495;49.916;14.536;2022-10-14T17:10:23;96747.19;;;14.09;69.32
42847;BME280;28495;49.916;14.536;2022-10-14T17:15:44;96747.22;;;14.17;69.16
42847;BME280;28495;49.916;14.536;2022-10-14T17:21:07;96752.47;;;14.17;69.24
42847;BME280;28495;49.916;14.536;2022-10-14T17:26:29;96748.84;;;14.02;68.96
42847;BME280;28495;49.916;14.536;2022-10-14T17:31:50;96745.41;;;13.93;69.00
42847;BME280;28495;49.916;14.536;2022-10-14T17:37:11;96743.91;;;13.82;68.97
42847;BME280;28495;49.916;14.536;2022-10-14T17:42:32;96740.75;;;13.70;68.93
42847;BME280;28495;49.916;14.536;2022-10-14T17:47:55;96720.78;;;13.61;68.98
42847;BME280;28495;49.916;14.536;2022-10-14T17:53:16;96727.78;;;13.52;69.10
42847;BME280;28495;49.916;14.536;2022-10-14T17:58:37;96729.06;;;13.40;69.06
42847;BME280;28495;49.916;14.536;2022-10-14T18:03:59;96716.72;;;13.32;69.17
42847;BME280;28495;49.916;14.536;2022-10-14T18:09:20;96719.00;;;13.27;69.17
42847;BME280;28495;49.916;14.536;2022-10-14T18:14:41;96712.47;;;13.31;69.38
42847;BME280;28495;49.916;14.536;2022-10-14T18:20:02;96711.66;;;13.31;69.28
42847;BME280;28495;49.916;14.536;2022-10-14T18:25:25;96709.34;;;13.27;69.25
42847;BME280;28495;49.916;14.536;2022-10-14T18:30:45;96725.56;;;13.23;69.39
42847;BME280;28495;49.916;14.536;2022-10-14T18:36:09;96727.44;;;13.13;69.15
42847;BME280;28495;49.916;14.536;2022-10-14T18:41:31;96718.59;;;13.05;69.27
42847;BME280;28495;49.916;14.536;2022-10-14T18:46:51;96715.44;;;13.02;69.36
42847;BME280;28495;49.916;14.536;2022-10-14T18:52:15;96718.91;;;13.02;69.47
42847;BME280;28495;49.916;14.536;2022-10-14T18:57:38;96713.84;;;13.01;69.48
42847;BME280;28495;49.916;14.536;2022-10-14T19:02:58;96704.19;;;13.01;69.56
42847;BME280;28495;49.916;14.536;2022-10-14T19:08:19;96701.06;;;12.98;69.50
42847;BME280;28495;49.916;14.536;2022-10-14T19:13:43;96700.03;;;12.90;69.50
42847;BME280;28495;49.916;14.536;2022-10-14T19:19:11;96707.69;;;12.84;69.74
42847;BME280;28495;49.916;14.536;2022-10-14T19:24:36;96700.69;;;12.84;69.62
42847;BME280;28495;49.916;14.536;2022-10-14T19:29:57;96691.13;;;12.75;69.48
42847;BME280;28495;49.916;14.536;2022-10-14T19:35:17;96696.81;;;12.70;69.65
42847;BME280;28495;49.916;14.536;2022-10-14T19:40:41;96685.88;;;12.67;69.67
42847;BME280;28495;49.916;14.536;2022-10-14T19:46:06;96680.44;;;12.60;69.74
42847;BME280;28495;49.916;14.536;2022-10-14T19:51:29;96679.59;;;12.59;69.88
42847;BME280;28495;49.916;14.536;2022-10-14T19:56:50;96670.47;;;12.63;70.08
42847;BME280;28495;49.916;14.536;2022-10-14T20:02:11;96667.34;;;12.60;70.04
42847;BME280;28495;49.916;14.536;2022-10-14T20:07:34;96668.03;;;12.62;70.10
42847;BME280;28495;49.916;14.536;2022-10-14T20:12:55;96657.22;;;12.65;70.04
42847;BME280;28495;49.916;14.536;2022-10-14T20:18:15;96653.16;;;12.71;70.25
42847;BME280;28495;49.916;14.536;2022-10-14T20:23:38;96653.69;;;12.74;70.17
42847;BME280;28495;49.916;14.536;2022-10-14T20:28:59;96657.28;;;12.73;70.08
42847;BME280;28495;49.916;14.536;2022-10-14T20:34:19;96656.09;;;12.68;69.94
42847;BME280;28495;49.916;14.536;2022-10-14T20:39:40;96646.91;;;12.63;69.91
42847;BME280;28495;49.916;14.536;2022-10-14T20:45:01;96645.28;;;12.62;70.08
42847;BME280;28495;49.916;14.536;2022-10-14T20:50:22;96643.63;;;12.61;70.08
42847;BME280;28495;49.916;14.536;2022-10-14T20:55:43;96635.28;;;12.58;70.17
42847;BME280;28495;49.916;14.536;2022-10-14T21:01:14;96630.19;;;12.56;70.07
42847;BME280;28495;49.916;14.536;2022-10-14T21:06:36;96631.19;;;12.55;70.24
42847;BME280;28495;49.916;14.536;2022-10-14T21:11:58;96616.31;;;12.56;70.07
42847;BME280;28495;49.916;14.536;2022-10-14T21:17:19;96599.81;;;12.55;70.13
42847;BME280;28495;49.916;14.536;2022-10-14T21:22:40;96595.56;;;12.54;70.10
42847;BME280;28495;49.916;14.536;2022-10-14T21:28:00;96602.06;;;12.50;70.02
42847;BME280;28495;49.916;14.536;2022-10-14T21:33:21;96612.47;;;12.42;69.92
42847;BME280;28495;49.916;14.536;2022-10-14T21:38:42;96609.03;;;12.41;70.12
42847;BME280;28495;49.916;14.536;2022-10-14T21:44:03;96603.16;;;12.39;70.21
42847;BME280;28495;49.916;14.536;2022-10-14T21:49:25;96598.22;;;12.36;70.11
42847;BME280;28495;49.916;14.536;2022-10-14T21:54:45;96595.59;;;12.36;70.33
42847;BME280;28495;49.916;14.536;2022-10-14T22:00:07;96592.69;;;12.39;70.39
42847;BME280;28495;49.916;14.536;2022-10-14T22:05:28;96589.28;;;12.39;70.34
42847;BME280;28495;49.916;14.536;2022-10-14T22:10:49;96579.44;;;12.41;70.36
42847;BME280;28495;49.916;14.536;2022-10-14T22:16:10;96585.81;;;12.38;70.28
42847;BME280;28495;49.916;14.536;2022-10-14T22:21:34;96577.47;;;12.34;70.21
42847;BME280;28495;49.916;14.536;2022-10-14T22:26:56;96578.38;;;12.25;70.25
42847;BME280;28495;49.916;14.536;2022-10-14T22:32:16;96584.09;;;12.20;70.44
42847;BME280;28495;49.916;14.536;2022-10-14T22:37:37;96576.25;;;12.20;70.46
42847;BME280;28495;49.916;14.536;2022-10-14T22:42:58;96562.69;;;12.25;70.56
42847;BME280;28495;49.916;14.536;2022-10-14T22:48:18;96550.28;;;12.27;70.51
42847;BME280;28495;49.916;14.536;2022-10-14T22:53:40;96531.53;;;12.32;70.64
42847;BME280;28495;49.916;14.536;2022-10-14T22:59:03;96536.78;;;12.32;70.45
42847;BME280;28495;49.916;14.536;2022-10-14T23:04:25;96529.06;;;12.30;70.52
42847;BME280;28495;49.916;14.536;2022-10-14T23:09:45;96524.69;;;12.39;70.61
42847;BME280;28495;49.916;14.536;2022-10-14T23:15:06;96525.06;;;12.44;70.44
42847;BME280;28495;49.916;14.536;2022-10-14T23:20:27;96519.03;;;12.52;70.74
42847;BME280;28495;49.916;14.536;2022-10-14T23:25:49;96521.66;;;12.52;70.35
42847;BME280;28495;49.916;14.536;2022-10-14T23:31:12;96512.94;;;12.43;70.40
42847;BME280;28495;49.916;14.536;2022-10-14T23:36:33;96522.38;;;12.36;70.32
42847;BME280;28495;49.916;14.536;2022-10-14T23:41:53;96519.28;;;12.32;70.53
42847;BME280;28495;49.916;14.536;2022-10-14T23:47:14;96521.09;;;12.32;70.52
42847;BME280;28495;49.916;14.536;2022-10-14T23:52:35;96514.84;;;12.33;70.62
42847;BME280;28495;49.916;14.536;2022-10-14T23:57:55;96491.00;;;12.36;70.60
